Time;durP1;ratioP1;P1;durP2;ratioP2;P2;SDS_P1;SDS_P2;PMS_P1;PMS_P2;Temp;Humidity;BMP_temperature;BMP_pressure;BME280_temperature;BME280_humidity;BME280_pressure;Samples;Min_cycle;Max_cycle;Signal;HPM_P1;HPM_P2
2023/06/13 00:00:57;;;;;;;6.03;3.73;;;17.30;99.90;;;;;;4146816;28;20308;-72
2023/06/13 00:03:00;;;;;;;5.20;3.97;;;17.20;99.90;;;;;;4147243;28;20267;-72
2023/06/13 00:05:03;;;;;;;6.43;3.73;;;17.20;99.90;;;;;;4149448;28;20706;-73
2023/06/13 00:07:09;;;;;;;5.30;3.37;;;17.10;99.90;;;;;;4144520;28;20694;-73
2023/06/13 00:09:11;;;;;;;6.00;3.83;;;17.10;99.90;;;;;;4150091;28;20216;-73
2023/06/13 00:11:12;;;;;;;4.67;3.40;;;17.10;99.90;;;;;;4147630;28;20298;-73
2023/06/13 00:13:17;;;;;;;6.57;3.47;;;17.00;99.90;;;;;;4147469;28;20307;-73
2023/06/13 00:15:19;;;;;;;5.37;3.00;;;17.00;99.90;;;;;;4148311;28;20261;-73
2023/06/13 00:17:25;;;;;;;6.57;3.70;;;17.00;99.90;;;;;;4147159;28;20304;-73
2023/06/13 00:19:28;;;;;;;5.93;3.20;;;16.90;99.90;;;;;;4145409;28;20213;-73
2023/06/13 00:21:30;;;;;;;4.87;3.00;;;16.90;99.90;;;;;;4148633;28;20326;-73
2023/06/13 00:23:32;;;;;;;5.23;3.63;;;16.80;99.90;;;;;;4148805;28;20302;-74
2023/06/13 00:25:34;;;;;;;5.87;3.43;;;16.90;99.90;;;;;;4148811;28;20698;-73
2023/06/13 00:27:38;;;;;;;6.53;3.90;;;16.80;99.90;;;;;;4146382;28;20722;-73
2023/06/13 00:29:41;;;;;;;6.43;3.73;;;16.80;99.90;;;;;;4146825;28;20741;-72
2023/06/13 00:31:43;;;;;;;4.47;3.33;;;16.80;99.90;;;;;;4145597;28;20299;-73
2023/06/13 00:33:45;;;;;;;5.73;3.57;;;16.70;99.90;;;;;;4145864;28;20686;-73
2023/06/13 00:35:47;;;;;;;7.33;3.33;;;16.70;99.90;;;;;;4145693;28;20335;-71
2023/06/13 00:37:54;;;;;;;6.10;3.80;;;16.60;99.90;;;;;;4149647;28;20596;-73
2023/06/13 00:39:56;;;;;;;6.70;3.80;;;16.60;99.90;;;;;;4145631;28;20207;-73
2023/06/13 00:41:57;;;;;;;5.17;3.30;;;16.60;99.90;;;;;;4147052;28;20587;-73
2023/06/13 00:44:00;;;;;;;5.57;3.70;;;16.50;99.90;;;;;;4144637;28;20211;-73
2023/06/13 00:46:03;;;;;;;8.90;3.90;;;16.50;99.90;;;;;;4147345;28;20295;-73
2023/06/13 00:48:07;;;;;;;4.97;3.60;;;16.40;99.90;;;;;;4145568;28;20215;-73
2023/06/13 00:50:10;;;;;;;5.83;3.80;;;16.30;99.90;;;;;;4149707;28;20708;-73
2023/06/13 00:52:12;;;;;;;5.67;4.00;;;16.30;99.90;;;;;;4145282;28;20693;-72
2023/06/13 00:54:16;;;;;;;6.50;4.10;;;16.30;99.90;;;;;;4150111;28;20228;-73
2023/06/13 00:56:18;;;;;;;8.33;3.63;;;16.20;99.90;;;;;;4152183;28;20266;-73
2023/06/13 00:58:20;;;;;;;4.73;3.77;;;16.20;99.90;;;;;;4150770;28;20932;-73
2023/06/13 01:00:25;;;;;;;6.23;3.70;;;16.10;99.90;;;;;;4145735;28;20204;-73
2023/06/13 01:02:29;;;;;;;5.53;3.60;;;16.10;99.90;;;;;;4145580;28;20207;-73
2023/06/13 01:04:34;;;;;;;5.33;3.90;;;16.00;99.90;;;;;;4147939;28;20228;-73
2023/06/13 01:06:40;;;;;;;5.80;3.53;;;16.10;99.90;;;;;;4149785;28;20218;-72
2023/06/13 01:08:42;;;;;;;6.27;3.90;;;16.00;99.90;;;;;;4149599;28;20278;-73
2023/06/13 01:10:47;;;;;;;6.43;3.63;;;15.90;99.90;;;;;;4147247;28;20207;-73
2023/06/13 01:13:01;;;;;;;5.73;3.87;;;15.90;99.90;;;;;;4144423;28;20215;-73
2023/06/13 01:15:10;;;;;;;6.43;4.03;;;15.90;99.90;;;;;;4147296;28;20664;-73
2023/06/13 01:17:15;;;;;;;6.60;4.20;;;15.90;99.90;;;;;;4144902;28;20276;-73
2023/06/13 01:19:26;;;;;;;6.37;4.20;;;15.80;99.90;;;;;;4146820;28;20215;-72
2023/06/13 01:21:30;;;;;;;5.30;3.93;;;15.80;99.90;;;;;;4145863;28;20235;-73
2023/06/13 01:23:38;;;;;;;4.77;3.67;;;15.80;99.90;;;;;;4145374;28;20195;-73
2023/06/13 01:25:52;;;;;;;4.90;3.63;;;15.70;99.90;;;;;;4153039;28;20593;-73
2023/06/13 01:27:58;;;;;;;7.63;3.90;;;15.60;99.90;;;;;;4146159;28;20221;-73
2023/06/13 01:30:02;;;;;;;6.93;3.93;;;15.60;99.90;;;;;;4147016;28;20242;-73
2023/06/13 01:32:07;;;;;;;5.77;3.93;;;15.60;99.90;;;;;;4144117;28;20291;-72
2023/06/13 01:34:12;;;;;;;5.43;3.70;;;15.60;99.90;;;;;;4147634;28;20214;-73
2023/06/13 01:36:14;;;;;;;5.73;3.87;;;15.50;99.90;;;;;;4145909;28;20230;-73
2023/06/13 01:38:16;;;;;;;7.33;4.17;;;15.50;99.90;;;;;;4141961;28;20222;-73
2023/06/13 01:40:18;;;;;;;5.37;4.07;;;15.40;99.90;;;;;;4146182;28;20232;-73
2023/06/13 01:42:20;;;;;;;6.77;4.10;;;15.40;99.90;;;;;;4148167;28;20624;-72
2023/06/13 01:44:24;;;;;;;5.70;4.40;;;15.40;99.90;;;;;;4143052;28;20611;-73
2023/06/13 01:46:30;;;;;;;5.63;3.80;;;15.30;99.90;;;;;;4148911;28;20236;-74
2023/06/13 01:48:42;;;;;;;5.50;4.13;;;15.30;99.90;;;;;;4146590;28;20282;-73
2023/06/13 01:50:50;;;;;;;4.70;3.73;;;15.30;99.90;;;;;;4147985;28;20242;-73
2023/06/13 01:53:01;;;;;;;5.97;3.80;;;15.20;99.90;;;;;;4147277;28;20222;-73
2023/06/13 01:55:08;;;;;;;5.63;3.73;;;15.20;99.90;;;;;;4145114;28;20324;-73
2023/06/13 01:57:14;;;;;;;5.10;4.17;;;15.10;99.90;;;;;;4147126;28;20245;-73
2023/06/13 01:59:21;;;;;;;6.13;4.30;;;14.90;99.90;;;;;;4145689;28;20218;-73
2023/06/13 02:01:26;;;;;;;6.47;4.07;;;15.00;99.90;;;;;;4148292;28;20206;-73
2023/06/13 02:03:29;;;;;;;6.27;4.23;;;15.00;99.90;;;;;;4146478;28;20216;-73
2023/06/13 02:05:31;;;;;;;6.07;4.20;;;15.00;99.90;;;;;;4145141;28;20661;-73
2023/06/13 02:07:36;;;;;;;4.67;3.60;;;15.00;99.90;;;;;;4146471;28;21098;-74
2023/06/13 02:09:38;;;;;;;6.90;4.17;;;14.90;99.90;;;;;;4144801;28;20317;-73
2023/06/13 02:11:40;;;;;;;4.70;3.50;;;14.80;99.90;;;;;;4148155;28;20302;-73
2023/06/13 02:13:42;;;;;;;6.37;4.00;;;14.80;99.90;;;;;;4147387;28;20301;-73
2023/06/13 02:15:44;;;;;;;6.27;4.07;;;14.80;99.90;;;;;;4146858;28;20762;-73
2023/06/13 02:17:47;;;;;;;5.93;4.07;;;14.80;99.90;;;;;;4144694;28;20234;-73
2023/06/13 02:19:49;;;;;;;6.77;4.10;;;14.70;99.90;;;;;;4146244;28;20731;-73
2023/06/13 02:21:51;;;;;;;6.07;4.27;;;14.70;99.90;;;;;;4146336;28;20658;-72
2023/06/13 02:23:53;;;;;;;5.93;4.37;;;14.70;99.90;;;;;;4141283;28;20222;-73
2023/06/13 02:25:55;;;;;;;6.17;4.10;;;14.70;99.90;;;;;;4151110;28;20774;-73
2023/06/13 02:27:57;;;;;;;7.43;4.10;;;14.60;99.90;;;;;;4143294;28;20317;-73
2023/06/13 02:30:00;;;;;;;6.83;4.50;;;14.60;99.90;;;;;;4149101;28;20634;-73
2023/06/13 02:32:02;;;;;;;6.17;4.13;;;14.50;99.90;;;;;;4146998;28;20702;-73
2023/06/13 02:34:06;;;;;;;6.07;3.97;;;14.50;99.90;;;;;;4147699;28;20661;-73
2023/06/13 02:36:08;;;;;;;6.30;4.30;;;14.40;99.90;;;;;;4146212;28;20653;-72
2023/06/13 02:38:10;;;;;;;5.07;3.87;;;14.40;99.90;;;;;;4144250;28;20270;-72
2023/06/13 02:40:12;;;;;;;6.20;3.97;;;14.40;99.90;;;;;;4151883;28;20212;-73
2023/06/13 02:42:14;;;;;;;6.70;4.30;;;14.30;99.90;;;;;;4145572;28;20303;-73
2023/06/13 02:44:16;;;;;;;6.17;4.47;;;14.30;99.90;;;;;;4142818;28;20240;-73
2023/06/13 02:46:18;;;;;;;7.87;4.20;;;14.30;99.90;;;;;;4145406;28;20219;-73
2023/06/13 02:48:21;;;;;;;5.67;4.10;;;14.30;99.90;;;;;;4145175;28;20679;-73
2023/06/13 02:50:25;;;;;;;6.80;4.33;;;14.30;99.90;;;;;;4143948;28;21136;-73
2023/06/13 02:52:27;;;;;;;6.10;4.40;;;14.20;99.90;;;;;;4147979;28;20213;-73
2023/06/13 02:54:31;;;;;;;6.63;4.53;;;14.20;99.90;;;;;;4146511;28;20876;-72
2023/06/13 02:56:33;;;;;;;6.80;4.20;;;14.20;99.90;;;;;;4148069;28;20865;-73
2023/06/13 02:58:35;;;;;;;6.07;3.93;;;14.20;99.90;;;;;;4148421;28;20238;-73
2023/06/13 03:00:40;;;;;;;5.60;3.83;;;14.20;99.90;;;;;;4142188;28;20216;-74
2023/06/13 03:02:43;;;;;;;5.93;3.87;;;14.20;99.90;;;;;;4143034;28;20213;-75
2023/06/13 03:04:45;;;;;;;6.63;3.73;;;14.20;99.90;;;;;;4144946;28;20278;-74
2023/06/13 03:06:50;;;;;;;6.23;4.30;;;14.20;99.90;;;;;;4152369;28;20269;-74
2023/06/13 03:08:52;;;;;;;7.27;4.07;;;14.20;99.90;;;;;;4148352;28;20249;-74
2023/06/13 03:10:54;;;;;;;6.10;4.23;;;14.20;99.90;;;;;;4147613;28;20304;-72
2023/06/13 03:12:56;;;;;;;7.87;4.07;;;14.10;99.90;;;;;;4143524;28;20305;-72
2023/06/13 03:14:59;;;;;;;6.03;4.17;;;14.10;99.90;;;;;;4139876;28;20236;-72
2023/06/13 03:17:03;;;;;;;6.63;3.80;;;14.10;99.90;;;;;;4143720;28;20216;-72
2023/06/13 03:19:05;;;;;;;4.80;3.70;;;14.10;99.90;;;;;;4144235;28;20332;-72
2023/06/13 03:21:07;;;;;;;6.70;3.80;;;14.10;99.90;;;;;;4144273;28;20248;-72
2023/06/13 03:23:10;;;;;;;6.07;4.23;;;14.10;99.90;;;;;;4144721;28;20220;-72
2023/06/13 03:25:12;;;;;;;11.03;3.80;;;14.10;99.90;;;;;;4145758;28;20232;-72
2023/06/13 03:27:14;;;;;;;7.60;4.20;;;14.10;99.90;;;;;;4142851;28;20239;-72
2023/06/13 03:29:16;;;;;;;4.83;3.57;;;14.10;99.90;;;;;;4147379;28;20220;-72
2023/06/13 03:31:18;;;;;;;5.30;4.00;;;14.10;99.90;;;;;;4151223;28;20214;-73
2023/06/13 03:33:20;;;;;;;7.37;4.03;;;14.10;99.90;;;;;;4151738;28;20335;-72
2023/06/13 03:35:22;;;;;;;5.37;3.73;;;14.10;99.90;;;;;;4149909;28;20680;-73
2023/06/13 03:37:24;;;;;;;5.80;3.63;;;14.10;99.90;;;;;;4146124;28;20220;-72
2023/06/13 03:39:27;;;;;;;8.37;4.00;;;14.10;99.90;;;;;;4153616;28;20211;-72
2023/06/13 03:41:29;;;;;;;6.30;4.00;;;14.10;99.90;;;;;;4151757;28;20207;-72
2023/06/13 03:43:32;;;;;;;6.13;3.53;;;14.10;99.90;;;;;;4143141;28;20219;-72
2023/06/13 03:45:35;;;;;;;5.53;3.50;;;14.10;99.90;;;;;;4142044;28;20220;-72
2023/06/13 03:47:38;;;;;;;4.87;3.63;;;14.00;99.90;;;;;;4145694;28;20274;-71
2023/06/13 03:49:40;;;;;;;6.13;3.80;;;14.00;99.90;;;;;;4148159;28;20690;-73
2023/06/13 03:51:43;;;;;;;6.03;4.00;;;14.10;99.90;;;;;;4145070;28;20208;-72
2023/06/13 03:53:45;;;;;;;7.17;3.93;;;14.00;99.90;;;;;;4146222;28;20277;-72
2023/06/13 03:55:49;;;;;;;6.03;3.90;;;14.10;99.90;;;;;;4149788;28;20232;-71
2023/06/13 03:57:52;;;;;;;4.87;3.57;;;14.00;99.90;;;;;;4151039;28;20215;-73
2023/06/13 03:59:55;;;;;;;5.83;3.90;;;14.10;99.90;;;;;;4148376;28;20211;-71
2023/06/13 04:01:57;;;;;;;6.70;4.40;;;14.00;99.90;;;;;;4151470;28;20254;-71
2023/06/13 04:03:59;;;;;;;6.23;4.40;;;14.10;99.90;;;;;;4142252;28;20217;-72
2023/06/13 04:06:01;;;;;;;6.60;4.30;;;14.10;99.90;;;;;;4150672;28;20322;-71
2023/06/13 04:08:05;;;;;;;7.57;4.40;;;14.10;99.90;;;;;;4148461;28;20221;-71
2023/06/13 04:10:08;;;;;;;10.63;4.40;;;14.10;99.90;;;;;;4150195;28;20219;-73
2023/06/13 04:12:12;;;;;;;5.43;4.40;;;14.10;99.90;;;;;;4149628;28;20222;-73
2023/06/13 04:14:14;;;;;;;7.63;4.40;;;14.10;99.90;;;;;;4150265;28;20212;-73
2023/06/13 04:16:18;;;;;;;7.97;4.57;;;14.10;99.90;;;;;;4146808;28;20721;-72
2023/06/13 04:18:21;;;;;;;7.37;4.20;;;14.10;99.90;;;;;;4146886;28;20201;-76
2023/06/13 04:20:23;;;;;;;5.13;3.77;;;14.00;99.90;;;;;;4143838;28;20213;-74
2023/06/13 04:22:25;;;;;;;7.10;4.17;;;14.00;99.90;;;;;;4142491;28;20215;-74
2023/06/13 04:24:31;;;;;;;5.67;4.20;;;14.00;99.90;;;;;;4147036;28;20223;-73
2023/06/13 04:26:33;;;;;;;6.20;4.20;;;14.00;99.90;;;;;;4148812;28;20212;-74
2023/06/13 04:28:37;;;;;;;6.17;3.97;;;14.00;99.90;;;;;;4143766;28;20235;-74
2023/06/13 04:30:40;;;;;;;6.17;4.00;;;13.90;99.90;;;;;;4143577;28;20211;-74
2023/06/13 04:32:43;;;;;;;7.23;4.67;;;13.80;99.90;;;;;;4145670;28;20674;-74
2023/06/13 04:34:52;;;;;;;7.77;4.67;;;14.00;99.90;;;;;;4143062;28;20235;-74
2023/06/13 04:36:56;;;;;;;6.83;4.37;;;13.90;99.90;;;;;;4146932;28;20226;-73
2023/06/13 04:39:04;;;;;;;6.97;4.53;;;14.00;99.90;;;;;;4142439;28;20216;-73
2023/06/13 04:41:09;;;;;;;8.43;5.37;;;14.00;99.90;;;;;;4143008;28;20223;-73
2023/06/13 04:43:14;;;;;;;8.03;5.00;;;14.00;99.90;;;;;;4146468;28;20222;-73
2023/06/13 04:45:21;;;;;;;7.93;5.07;;;14.10;99.90;;;;;;4147787;28;20229;-73
2023/06/13 04:47:24;;;;;;;6.33;4.57;;;14.10;99.90;;;;;;4148758;28;20877;-73
2023/06/13 04:49:27;;;;;;;6.37;4.57;;;14.10;99.90;;;;;;4143336;28;20242;-73
2023/06/13 04:51:30;;;;;;;6.20;4.53;;;14.20;99.90;;;;;;4142198;28;20277;-73
2023/06/13 04:53:33;;;;;;;5.77;4.30;;;14.20;99.90;;;;;;4146461;28;20271;-73
2023/06/13 04:55:37;;;;;;;6.27;4.33;;;14.20;99.90;;;;;;4148810;28;20355;-73
2023/06/13 04:57:40;;;;;;;6.60;4.20;;;14.20;99.90;;;;;;4144775;28;20216;-74
2023/06/13 04:59:42;;;;;;;5.03;4.07;;;14.20;99.90;;;;;;4142798;28;20208;-73
2023/06/13 05:01:47;;;;;;;6.53;4.67;;;14.20;99.90;;;;;;4147229;28;20576;-73
2023/06/13 05:03:51;;;;;;;9.13;5.07;;;14.30;99.90;;;;;;4148546;28;20228;-73
2023/06/13 05:05:53;;;;;;;10.33;4.97;;;14.30;99.90;;;;;;4143131;28;20328;-73
2023/06/13 05:07:59;;;;;;;6.70;4.97;;;14.30;99.90;;;;;;4145077;28;20222;-73
2023/06/13 05:10:01;;;;;;;7.40;4.63;;;14.30;99.90;;;;;;4146325;28;20665;-74
2023/06/13 05:12:03;;;;;;;6.57;5.00;;;14.40;99.90;;;;;;4146396;28;20217;-73
2023/06/13 05:14:05;;;;;;;7.83;4.50;;;14.40;99.90;;;;;;4144310;28;20301;-73
2023/06/13 05:16:07;;;;;;;6.87;4.20;;;14.40;99.90;;;;;;4145287;28;20335;-73
2023/06/13 05:18:12;;;;;;;6.80;4.07;;;14.40;99.90;;;;;;4144657;28;20298;-73
2023/06/13 05:20:14;;;;;;;7.57;4.43;;;14.50;99.90;;;;;;4146585;28;20214;-73
2023/06/13 05:22:17;;;;;;;6.40;4.13;;;14.50;99.90;;;;;;4147614;28;20224;-73
2023/06/13 05:24:19;;;;;;;7.73;3.90;;;14.50;99.90;;;;;;4146961;28;20214;-73
2023/06/13 05:26:21;;;;;;;5.80;4.17;;;14.50;99.90;;;;;;4142502;28;20838;-73
2023/06/13 05:28:23;;;;;;;7.57;4.17;;;14.60;99.90;;;;;;4141915;28;20217;-73
2023/06/13 05:30:25;;;;;;;5.97;4.33;;;14.60;99.90;;;;;;4143099;28;20251;-72
2023/06/13 05:32:27;;;;;;;7.03;4.30;;;14.60;99.90;;;;;;4143718;28;20208;-73
2023/06/13 05:34:31;;;;;;;5.63;3.77;;;14.70;99.90;;;;;;4146288;28;20243;-73
2023/06/13 05:36:33;;;;;;;6.93;4.13;;;14.70;99.90;;;;;;4144142;28;20709;-75
2023/06/13 05:38:36;;;;;;;6.87;4.00;;;14.80;99.90;;;;;;4147261;28;20798;-78
2023/06/13 05:40:38;;;;;;;7.00;4.70;;;14.80;99.90;;;;;;4154768;28;20668;-79
2023/06/13 05:42:40;;;;;;;6.77;4.47;;;14.90;99.90;;;;;;4150534;28;20214;-76
2023/06/13 05:44:42;;;;;;;8.20;5.23;;;14.90;99.90;;;;;;4145565;28;20317;-76
2023/06/13 05:46:43;;;;;;;6.70;4.70;;;15.00;99.90;;;;;;4145185;28;20209;-75
2023/06/13 05:48:45;;;;;;;6.33;4.30;;;15.00;99.90;;;;;;4150145;28;20861;-75
2023/06/13 05:50:48;;;;;;;8.07;4.63;;;15.10;99.90;;;;;;4148730;28;20273;-76
2023/06/13 05:52:50;;;;;;;5.83;4.10;;;15.20;99.90;;;;;;4147536;28;20217;-74
2023/06/13 05:54:52;;;;;;;6.60;4.03;;;15.20;99.90;;;;;;4152299;28;20325;-74
2023/06/13 05:56:54;;;;;;;5.40;4.07;;;15.30;99.90;;;;;;4143161;28;21205;-75
2023/06/13 05:58:56;;;;;;;5.17;3.80;;;15.40;99.90;;;;;;4149187;28;20277;-76
2023/06/13 06:01:03;;;;;;;7.17;4.07;;;15.40;99.90;;;;;;4148720;28;20300;-76
2023/06/13 06:03:05;;;;;;;6.77;4.27;;;15.50;99.90;;;;;;4147988;28;20210;-76
2023/06/13 06:05:08;;;;;;;6.83;4.27;;;15.60;99.90;;;;;;4147135;28;20230;-76
2023/06/13 06:07:14;;;;;;;4.37;3.63;;;15.60;99.90;;;;;;4146866;28;20213;-76
2023/06/13 06:09:16;;;;;;;5.17;3.63;;;15.70;99.90;;;;;;4144298;28;20252;-76
2023/06/13 06:11:18;;;;;;;4.93;3.70;;;15.80;99.90;;;;;;4143545;28;20315;-76
2023/06/13 06:13:20;;;;;;;7.60;3.73;;;15.80;99.90;;;;;;4149372;28;20246;-76
2023/06/13 06:15:22;;;;;;;5.97;3.90;;;15.90;99.90;;;;;;4145396;28;20338;-79
2023/06/13 06:17:24;;;;;;;5.07;3.83;;;15.90;99.90;;;;;;4147358;28;20237;-79
2023/06/13 06:19:26;;;;;;;4.83;3.70;;;16.00;99.90;;;;;;4150262;28;20208;-79
2023/06/13 06:21:28;;;;;;;4.80;3.40;;;16.00;99.90;;;;;;4145171;28;20310;-79
2023/06/13 06:23:31;;;;;;;6.17;3.37;;;16.10;99.90;;;;;;4145662;28;20673;-79
2023/06/13 06:25:33;;;;;;;5.23;3.53;;;16.20;99.90;;;;;;4146852;28;20223;-76
2023/06/13 06:27:35;;;;;;;6.03;3.30;;;16.20;99.90;;;;;;4150034;28;20203;-76
2023/06/13 06:29:37;;;;;;;7.63;3.47;;;16.30;99.90;;;;;;4146386;28;20270;-76
2023/06/13 06:31:39;;;;;;;5.73;3.50;;;16.30;99.90;;;;;;4147116;28;20299;-76
2023/06/13 06:33:41;;;;;;;4.97;3.13;;;16.40;99.90;;;;;;4146648;28;20685;-76
2023/06/13 06:35:43;;;;;;;6.27;3.30;;;16.40;99.90;;;;;;4146482;28;20266;-76
2023/06/13 06:37:46;;;;;;;6.03;3.70;;;16.50;99.90;;;;;;4143088;28;20234;-78
2023/06/13 06:39:50;;;;;;;6.50;3.70;;;16.50;99.90;;;;;;4150802;28;20203;-79
2023/06/13 06:41:52;;;;;;;5.03;3.60;;;16.60;99.90;;;;;;4151699;28;20222;-78
2023/06/13 06:43:54;;;;;;;4.30;3.43;;;16.70;99.90;;;;;;4152844;28;20215;-79
2023/06/13 06:45:58;;;;;;;5.73;3.70;;;16.80;99.90;;;;;;4154750;28;20245;-79
2023/06/13 06:48:01;;;;;;;4.27;3.43;;;16.80;99.90;;;;;;4146913;28;20245;-76
2023/06/13 06:50:03;;;;;;;6.77;3.50;;;16.90;99.90;;;;;;4143639;28;20685;-77
2023/06/13 06:52:06;;;;;;;4.07;3.00;;;16.90;99.90;;;;;;4147664;28;20303;-76
2023/06/13 06:54:08;;;;;;;5.53;3.53;;;17.00;99.90;;;;;;4140292;28;20252;-76
2023/06/13 06:56:11;;;;;;;5.30;3.37;;;17.10;99.90;;;;;;4148074;28;20414;-79
2023/06/13 06:58:13;;;;;;;7.70;3.27;;;17.20;99.90;;;;;;4145247;28;20220;-79
2023/06/13 07:00:17;;;;;;;4.30;3.00;;;17.30;99.90;;;;;;4152219;28;20291;-78
2023/06/13 07:02:19;;;;;;;4.47;3.07;;;17.30;99.90;;;;;;4148417;28;20246;-78
2023/06/13 07:04:21;;;;;;;4.63;3.23;;;17.40;99.90;;;;;;4152169;28;20247;-79
2023/06/13 07:06:27;;;;;;;4.10;3.17;;;17.50;99.90;;;;;;4150965;28;20603;-79
2023/06/13 07:08:29;;;;;;;3.17;2.80;;;17.60;99.90;;;;;;4152725;28;20270;-79
2023/06/13 07:10:31;;;;;;;4.50;2.97;;;17.70;99.90;;;;;;4146484;28;20216;-76
2023/06/13 07:12:34;;;;;;;3.87;3.10;;;17.70;99.90;;;;;;4153376;28;20580;-76
2023/06/13 07:14:36;;;;;;;4.50;3.23;;;17.80;99.90;;;;;;4148890;28;20596;-78
2023/06/13 07:16:38;;;;;;;3.83;2.77;;;17.90;99.90;;;;;;4165987;28;20270;-78
2023/06/13 07:18:40;;;;;;;3.53;2.80;;;17.90;99.90;;;;;;4157285;28;20212;-77
2023/06/13 07:20:44;;;;;;;5.30;3.20;;;18.10;99.90;;;;;;4153327;28;20235;-76
2023/06/13 07:22:46;;;;;;;4.33;3.00;;;18.10;99.90;;;;;;4150637;28;20279;-76
2023/06/13 07:24:48;;;;;;;7.77;2.87;;;18.20;99.90;;;;;;4150991;28;20229;-76
2023/06/13 07:26:50;;;;;;;5.37;3.10;;;18.30;99.90;;;;;;4148948;28;20219;-77
2023/06/13 07:28:53;;;;;;;3.70;2.87;;;18.40;99.90;;;;;;4152780;28;20344;-76
2023/06/13 07:30:56;;;;;;;5.67;2.80;;;18.50;99.90;;;;;;4158768;28;20588;-76
2023/06/13 07:32:58;;;;;;;6.47;3.13;;;18.60;99.90;;;;;;4145099;28;20216;-76
2023/06/13 07:35:02;;;;;;;6.97;3.03;;;18.70;99.90;;;;;;4151943;28;20723;-76
2023/06/13 07:37:05;;;;;;;5.70;3.20;;;18.80;99.90;;;;;;4148517;28;20780;-76
2023/06/13 07:39:11;;;;;;;3.70;2.70;;;18.90;99.90;;;;;;4153708;28;20224;-77
2023/06/13 07:41:13;;;;;;;4.47;2.90;;;18.90;99.90;;;;;;4152611;28;20218;-77
2023/06/13 07:43:15;;;;;;;4.23;2.90;;;19.00;99.90;;;;;;4150328;28;20635;-76
2023/06/13 07:45:18;;;;;;;5.97;2.97;;;19.10;99.90;;;;;;4150939;28;20242;-78
2023/06/13 07:47:22;;;;;;;3.53;2.77;;;19.20;99.90;;;;;;4152058;28;20305;-77
2023/06/13 07:49:27;;;;;;;6.97;2.90;;;19.20;99.90;;;;;;4152798;28;20683;-78
2023/06/13 07:51:31;;;;;;;3.87;3.00;;;19.30;99.90;;;;;;4152935;28;20300;-77
2023/06/13 07:53:32;;;;;;;4.43;2.80;;;19.40;99.90;;;;;;4151872;28;20217;-77
2023/06/13 07:55:34;;;;;;;5.97;3.07;;;19.50;99.90;;;;;;4147160;28;20231;-77
2023/06/13 07:57:36;;;;;;;4.33;3.00;;;19.60;99.90;;;;;;4152801;28;20588;-77
2023/06/13 07:59:38;;;;;;;4.63;2.93;;;19.60;99.90;;;;;;4149669;28;20651;-77
2023/06/13 08:01:41;;;;;;;6.13;3.10;;;19.70;99.90;;;;;;4150543;28;20246;-77
2023/06/13 08:03:47;;;;;;;4.60;2.83;;;19.80;96.10;;;;;;4148902;28;20302;-76
2023/06/13 08:05:49;;;;;;;3.83;2.90;;;19.90;97.50;;;;;;4151845;28;20247;-76
2023/06/13 08:07:51;;;;;;;8.23;3.33;;;20.00;97.50;;;;;;4149236;28;20219;-77
2023/06/13 08:09:53;;;;;;;4.00;2.70;;;20.10;95.30;;;;;;4145785;28;20266;-77
2023/06/13 08:11:57;;;;;;;4.83;3.33;;;20.20;95.30;;;;;;4152194;28;20629;-78
2023/06/13 08:13:59;;;;;;;7.63;3.30;;;20.20;79.90;;;;;;4152762;28;20216;-76
2023/06/13 08:16:02;;;;;;;6.73;3.07;;;20.50;79.30;;;;;;4149579;28;20255;-76
2023/06/13 08:18:05;;;;;;;4.00;2.40;;;20.50;78.60;;;;;;4147426;28;20654;-77
2023/06/13 08:20:09;;;;;;;4.57;2.70;;;20.70;80.70;;;;;;4142617;28;20205;-78
2023/06/13 08:22:10;;;;;;;3.63;2.90;;;20.90;77.30;;;;;;4148287;28;20211;-78
2023/06/13 08:24:12;;;;;;;4.37;2.90;;;21.10;73.30;;;;;;4160842;28;20218;-78
2023/06/13 08:26:15;;;;;;;4.20;2.90;;;21.40;68.80;;;;;;4159264;28;20670;-79
2023/06/13 08:28:17;;;;;;;3.90;2.90;;;21.70;64.30;;;;;;4155440;28;20234;-78
2023/06/13 08:30:19;;;;;;;4.47;2.80;;;21.90;61.00;;;;;;4150270;28;20211;-77
2023/06/13 08:32:21;;;;;;;4.00;2.63;;;22.10;55.40;;;;;;4151549;28;20215;-80
2023/06/13 08:34:27;;;;;;;3.77;2.73;;;22.20;55.10;;;;;;4151093;28;20280;-76
2023/06/13 08:36:29;;;;;;;5.20;3.10;;;22.40;52.00;;;;;;4148165;28;20213;-77
2023/06/13 08:38:31;;;;;;;3.13;2.40;;;22.50;50.00;;;;;;4148295;28;20321;-77
2023/06/13 08:40:36;;;;;;;4.10;2.60;;;22.60;47.70;;;;;;4147910;28;20736;-76
2023/06/13 08:42:38;;;;;;;6.47;2.87;;;22.70;46.30;;;;;;4147913;28;20654;-76
2023/06/13 08:44:42;;;;;;;5.27;2.97;;;22.80;47.20;;;;;;4145451;28;20708;-77
2023/06/13 08:46:47;;;;;;;6.23;3.03;;;22.90;44.90;;;;;;4146288;28;20239;-76
2023/06/13 08:48:49;;;;;;;4.37;2.70;;;23.10;44.00;;;;;;4145312;28;20217;-76
2023/06/13 08:50:53;;;;;;;4.63;3.10;;;23.20;44.10;;;;;;4147283;28;20311;-77
2023/06/13 08:52:58;;;;;;;3.57;2.90;;;23.20;44.80;;;;;;4147321;28;20341;-76
2023/06/13 08:55:00;;;;;;;4.67;2.90;;;23.30;46.30;;;;;;4150331;28;20266;-77
2023/06/13 08:57:07;;;;;;;6.20;3.17;;;23.40;48.80;;;;;;4146699;28;20235;-77
2023/06/13 08:59:15;;;;;;;4.10;3.37;;;23.50;51.00;;;;;;4145994;28;20215;-77
2023/06/13 09:01:19;;;;;;;6.07;3.67;;;23.60;53.50;;;;;;4146272;28;20241;-77
2023/06/13 09:03:21;;;;;;;4.67;3.53;;;23.70;54.90;;;;;;4148112;28;20245;-77
2023/06/13 09:05:23;;;;;;;4.93;3.53;;;23.70;56.60;;;;;;4149808;28;20356;-77
2023/06/13 09:07:27;;;;;;;7.97;3.93;;;23.90;56.70;;;;;;4146425;28;20302;-77
2023/06/13 09:09:31;;;;;;;6.13;4.00;;;24.00;53.00;;;;;;4145940;28;20235;-77
2023/06/13 09:11:35;;;;;;;7.17;3.67;;;24.10;49.50;;;;;;4144624;28;20207;-77
2023/06/13 09:13:37;;;;;;;6.63;4.03;;;24.20;49.40;;;;;;4145904;28;20919;-77
2023/06/13 09:15:41;;;;;;;6.63;3.60;;;24.30;49.40;;;;;;4146318;28;20709;-77
2023/06/13 09:17:44;;;;;;;7.17;3.33;;;24.30;48.70;;;;;;4144383;28;20226;-77
2023/06/13 09:19:47;;;;;;;6.53;3.50;;;24.30;49.30;;;;;;4145218;28;20215;-77
2023/06/13 09:21:50;;;;;;;5.03;3.97;;;24.30;49.10;;;;;;4150044;28;20454;-77
2023/06/13 09:23:55;;;;;;;7.17;3.23;;;24.30;48.40;;;;;;4149184;28;20218;-77
2023/06/13 09:25:59;;;;;;;5.07;3.27;;;24.40;45.90;;;;;;4144476;28;20236;-77
2023/06/13 09:28:31;;;;;;;7.07;4.00;;;24.30;43.10;;;;;;4147228;28;20614;-77
2023/06/13 09:30:33;;;;;;;9.10;3.80;;;24.40;41.10;;;;;;4145102;28;20207;-78
2023/06/13 09:32:43;;;;;;;7.57;3.50;;;24.40;39.20;;;;;;4145411;28;20219;-77
2023/06/13 09:34:46;;;;;;;6.93;3.53;;;24.40;38.60;;;;;;4146498;28;20268;-77
2023/06/13 09:36:48;;;;;;;5.47;3.50;;;24.30;37.10;;;;;;4143393;28;20274;-77
2023/06/13 09:38:50;;;;;;;4.93;3.00;;;24.30;36.50;;;;;;4146274;28;20705;-78
2023/06/13 09:40:56;;;;;;;8.03;3.83;;;24.30;36.20;;;;;;4144827;28;20224;-77
2023/06/13 09:43:02;;;;;;;4.37;3.60;;;24.30;35.40;;;;;;4147185;28;20246;-77
2023/06/13 09:45:10;;;;;;;5.63;3.40;;;24.30;35.00;;;;;;4148011;28;20232;-77
2023/06/13 09:47:22;;;;;;;7.00;3.37;;;24.30;35.00;;;;;;4142736;28;20217;-77
2023/06/13 09:49:30;;;;;;;5.63;3.03;;;24.40;34.70;;;;;;4147430;28;20246;-79
2023/06/13 09:51:32;;;;;;;4.13;3.30;;;24.50;33.50;;;;;;4148212;28;20217;-76
2023/06/13 09:53:35;;;;;;;6.50;3.60;;;24.50;33.30;;;;;;4143632;28;20208;-76
2023/06/13 09:55:37;;;;;;;7.03;3.30;;;24.50;32.80;;;;;;4142591;28;20238;-76
2023/06/13 09:57:41;;;;;;;4.73;3.13;;;24.50;32.10;;;;;;4142506;28;20856;-76
2023/06/13 09:59:44;;;;;;;7.27;3.90;;;24.50;32.80;;;;;;4147966;28;20258;-81
2023/06/13 10:01:47;;;;;;;5.33;3.40;;;24.60;33.10;;;;;;4150193;28;20211;-78
2023/06/13 10:03:49;;;;;;;4.50;3.30;;;24.70;33.60;;;;;;4152134;28;20254;-80
2023/06/13 10:05:52;;;;;;;8.07;3.50;;;24.70;33.40;;;;;;4148394;28;20292;-78
2023/06/13 10:07:55;;;;;;;4.43;3.20;;;24.80;32.40;;;;;;4144777;28;20295;-78
2023/06/13 10:09:58;;;;;;;4.47;3.00;;;24.90;31.90;;;;;;4145722;28;20232;-78
2023/06/13 10:12:01;;;;;;;4.03;3.30;;;24.90;32.00;;;;;;4147186;28;20215;-77
2023/06/13 10:14:10;;;;;;;7.90;3.30;;;25.10;31.70;;;;;;4145573;28;20216;-77
2023/06/13 10:16:13;;;;;;;4.27;2.97;;;25.20;30.90;;;;;;4148424;28;20214;-77
2023/06/13 10:18:20;;;;;;;4.47;3.23;;;25.30;30.70;;;;;;4147052;28;20262;-77
2023/06/13 10:20:22;;;;;;;5.90;3.53;;;25.40;30.60;;;;;;4143781;28;20358;-77
2023/06/13 10:22:25;;;;;;;6.77;3.80;;;25.50;29.80;;;;;;4149204;28;20306;-77
2023/06/13 10:24:27;;;;;;;4.73;3.17;;;25.50;29.70;;;;;;4148023;28;20600;-78
2023/06/13 10:26:37;;;;;;;5.30;3.23;;;25.60;29.50;;;;;;4145154;28;20624;-80
2023/06/13 10:28:56;;;;;;;7.50;3.00;;;25.80;29.50;;;;;;4148755;28;20227;-81
2023/06/13 10:31:10;;;;;;;3.87;3.00;;;25.90;28.90;;;;;;4143605;28;20216;-78
2023/06/13 10:33:45;;;;;;;4.30;3.13;;;26.20;28.70;;;;;;4155081;28;20238;-79
2023/06/13 10:36:11;;;;;;;6.27;3.37;;;26.40;28.80;;;;;;4152955;28;20261;-80
2023/06/13 10:38:33;;;;;;;4.70;3.10;;;26.70;28.10;;;;;;4145450;28;20238;-79
2023/06/13 10:41:15;;;;;;;4.30;2.97;;;27.00;27.60;;;;;;4150553;28;20280;-80
2023/06/13 10:43:24;;;;;;;5.07;3.07;;;27.10;27.40;;;;;;4146556;28;20588;-78